Splendeur — 3EPT4 — position and weather

sailwx.info

Track history (hours):
 
Tides and Currents Weather Stations Pressure Air Temp Water Temp Dewpoint Dewpoint Depression Visibility Wind Speed Wind Dir Waves Ship Positions

Splendeur

Last reported at 2018-Jan-23 19:29 UTC. Time now 2018-Jan-23 19:35 UTC.
Position N 49°11' W 122°55'.

MMSI: 342405088.

Date/timePositionNaut miles runAvg speedWind from/ knotsBaromVisibWave heightAir tempDewpointWater temp
2018-Jan-23 19:29N 49°11' W 122°55'0 0.0
2018-Jan-23 18:59N 49°11' W 122°55'0 0.0
2018-Jan-23 18:29N 49°11' W 122°55'0 0.0
2018-Jan-23 17:59N 49°11' W 122°55'0 0.0
2018-Jan-23 17:29N 49°11' W 122°55'0 0.0
2018-Jan-23 16:59N 49°11' W 122°55'0 0.0
2018-Jan-23 16:29N 49°11' W 122°55'0 0.0
2018-Jan-23 15:59N 49°11' W 122°55'0 0.0
2018-Jan-23 15:29N 49°11' W 122°55'0 0.0
2018-Jan-23 14:59N 49°11' W 122°55'0 0.0
2018-Jan-23 14:29N 49°11' W 122°55'0 0.0
2018-Jan-23 13:59N 49°11' W 122°55'0 0.0
2018-Jan-23 13:29N 49°11' W 122°55'0 0.0
2018-Jan-23 12:59N 49°11' W 122°55'0 0.0
2018-Jan-23 12:29N 49°11' W 122°55'0 0.0
2018-Jan-23 11:59N 49°11' W 122°55'0 0.0
2018-Jan-23 11:29N 49°11' W 122°55'0 0.0
2018-Jan-23 10:59N 49°11' W 122°55'0 0.0
2018-Jan-23 10:29N 49°11' W 122°55'0 0.0
2018-Jan-23 09:59N 49°11' W 122°55'0 0.0
2018-Jan-23 09:29N 49°11' W 122°55'0 0.0
2018-Jan-23 08:50N 49°11' W 122°55'0 0.0
2018-Jan-23 08:29N 49°11' W 122°55'0 0.0
2018-Jan-23 07:59N 49°11' W 122°55'0 0.0
2018-Jan-23 07:29N 49°11' W 122°55'0 0.0
2018-Jan-23 06:59N 49°11' W 122°55'0 0.0
2018-Jan-23 06:29N 49°11' W 122°55'0 0.0
2018-Jan-23 05:59N 49°11' W 122°55'0 0.0
2018-Jan-23 04:47N 49°11' W 122°55'0 0.0
2018-Jan-23 04:29N 49°11' W 122°55'0 0.0
2018-Jan-23 03:59N 49°11' W 122°55'0 0.0
2018-Jan-23 03:29N 49°11' W 122°55'0 0.0
2018-Jan-23 02:59N 49°11' W 122°55'0 0.0
2018-Jan-23 02:26N 49°11' W 122°55'0 0.0
2018-Jan-23 01:59N 49°11' W 122°55'0 0.0
2018-Jan-23 01:29N 49°11' W 122°55'0 0.0
2018-Jan-23 00:59N 49°11' W 122°55'0 0.0
2018-Jan-23 00:29N 49°11' W 122°55'0 0.0
2018-Jan-22 23:59N 49°11' W 122°55'0 0.0
2018-Jan-22 23:29N 49°11' W 122°55'0 0.0
2018-Jan-22 22:59N 49°11' W 122°55'0 0.0
2018-Jan-22 22:29N 49°11' W 122°55'0 0.0
2018-Jan-22 21:59N 49°11' W 122°55'0 0.0
2018-Jan-22 21:29N 49°11' W 122°55'0 0.0
2018-Jan-22 20:59N 49°11' W 122°55'1 3.0
2018-Jan-22 20:30N 49°10' W 122°57'4 8.3
2018-Jan-22 20:00N 49°09' W 123°03'4 8.5
2018-Jan-22 19:30N 49°06' W 123°08'510.1
2018-Jan-22 19:00N 49°07' W 123°16'4 8.1
2018-Jan-22 18:30N 49°05' W 123°21'3 6.6
2018-Jan-22 18:00N 49°03' W 123°17'4 8.8
2018-Jan-22 17:30N 48°60' W 123°12'713.4
2018-Jan-22 17:00N 48°55' W 123°05'713.9
2018-Jan-22 16:30N 48°49' W 122°59'714.2
2018-Jan-22 16:00N 48°44' W 123°07'612.8
2018-Jan-22 15:31N 48°40' W 123°15'815.7
2018-Jan-22 15:00N 48°32' W 123°12'815.1
2018-Jan-22 14:31N 48°25' W 123°11'714.1
2018-Jan-22 14:00N 48°22' W 123°20'3 7.0
2018-Jan-22 13:30N 48°20' W 123°24'2 4.3
2018-Jan-22 13:00N 48°18' W 123°25'3 5.8
2018-Jan-22 12:30N 48°15' W 123°27'4 7.0
2018-Jan-22 12:00N 48°13' W 123°32'4 7.5
2018-Jan-22 11:30N 48°13' W 123°37'4 7.9
2018-Jan-22 11:00N 48°13' W 123°43'4 7.5
2018-Jan-22 10:30N 48°14' W 123°49'4 7.4
2018-Jan-22 10:00N 48°14' W 123°54'4 7.7
2018-Jan-22 09:26N 48°15' W 124°00'4 8.4
2018-Jan-22 09:00N 48°17' W 124°05'510.4
2018-Jan-22 08:30N 48°19' W 124°13'612.0
2018-Jan-22 08:00N 48°21' W 124°21'5 9.4
2018-Jan-22 07:30N 48°23' W 124°27'3 6.7
2018-Jan-22 07:00N 48°25' W 124°31'3 6.6
2018-Jan-22 06:30N 48°26' W 124°36'3 6.0
2018-Jan-22 06:00N 48°27' W 124°40'3 6.8
2018-Jan-22 05:30N 48°29' W 124°45'3 6.6
2018-Jan-22 05:00N 48°29' W 124°50'3 5.9
2018-Jan-22 04:30N 48°29' W 124°54'3 5.7
2018-Jan-22 04:00N 48°29' W 124°59'3 6.0
2018-Jan-22 03:30N 48°29' W 125°03'3 5.8
2018-Jan-22 03:00N 48°29' W 125°08'3 5.7
2018-Jan-22 02:30N 48°29' W 125°12'3 5.9
2018-Jan-22 02:00N 48°29' W 125°16'3 5.9
2018-Jan-22 01:30N 48°29' W 125°21'3 6.8
2018-Jan-22 01:00N 48°28' W 125°26'4 7.6
2018-Jan-22 00:30N 48°28' W 125°31'510.2
2018-Jan-22 00:00N 48°27' W 125°39'510.2
2018-Jan-21 23:30N 48°26' W 125°47'510.2
2018-Jan-21 23:00N 48°25' W 125°54'5 9.9
2018-Jan-21 22:30N 48°24' W 126°01'5 9.3
2018-Jan-21 22:00N 48°23' W 126°08'5 8.8
2018-Jan-21 21:29N 48°24' W 126°15'5 9.3
2018-Jan-21 20:57N 48°24' W 126°23'  
Track history (hours):
 
Tides and Currents Weather Stations Pressure Air Temp Water Temp Dewpoint Dewpoint Depression Visibility Wind Speed Wind Dir Waves Ship Positions

Splendeur

Last reported at 2018-Jan-23 19:29 UTC. Time now 2018-Jan-23 19:35 UTC.
Position N 49°11' W 122°55'.

MMSI: 342405088.

Date/timePositionNaut miles runAvg speedWind from/ knotsBaromVisibWave heightAir tempDewpointWater temp
2018-Jan-23 19:29N 49°11' W 122°55'0 0.0
2018-Jan-23 18:59N 49°11' W 122°55'0 0.0
2018-Jan-23 18:29N 49°11' W 122°55'0 0.0
2018-Jan-23 17:59N 49°11' W 122°55'0 0.0
2018-Jan-23 17:29N 49°11' W 122°55'0 0.0
2018-Jan-23 16:59N 49°11' W 122°55'0 0.0
2018-Jan-23 16:29N 49°11' W 122°55'0 0.0
2018-Jan-23 15:59N 49°11' W 122°55'0 0.0
2018-Jan-23 15:29N 49°11' W 122°55'0 0.0
2018-Jan-23 14:59N 49°11' W 122°55'0 0.0
2018-Jan-23 14:29N 49°11' W 122°55'0 0.0
2018-Jan-23 13:59N 49°11' W 122°55'0 0.0
2018-Jan-23 13:29N 49°11' W 122°55'0 0.0
2018-Jan-23 12:59N 49°11' W 122°55'0 0.0
2018-Jan-23 12:29N 49°11' W 122°55'0 0.0
2018-Jan-23 11:59N 49°11' W 122°55'0 0.0
2018-Jan-23 11:29N 49°11' W 122°55'0 0.0
2018-Jan-23 10:59N 49°11' W 122°55'0 0.0
2018-Jan-23 10:29N 49°11' W 122°55'0 0.0
2018-Jan-23 09:59N 49°11' W 122°55'0 0.0
2018-Jan-23 09:29N 49°11' W 122°55'0 0.0
2018-Jan-23 08:50N 49°11' W 122°55'0 0.0
2018-Jan-23 08:29N 49°11' W 122°55'0 0.0
2018-Jan-23 07:59N 49°11' W 122°55'0 0.0
2018-Jan-23 07:29N 49°11' W 122°55'0 0.0
2018-Jan-23 06:59N 49°11' W 122°55'0 0.0
2018-Jan-23 06:29N 49°11' W 122°55'0 0.0
2018-Jan-23 05:59N 49°11' W 122°55'0 0.0
2018-Jan-23 04:47N 49°11' W 122°55'0 0.0
2018-Jan-23 04:29N 49°11' W 122°55'0 0.0
2018-Jan-23 03:59N 49°11' W 122°55'0 0.0
2018-Jan-23 03:29N 49°11' W 122°55'0 0.0
2018-Jan-23 02:59N 49°11' W 122°55'0 0.0
2018-Jan-23 02:26N 49°11' W 122°55'0 0.0
2018-Jan-23 01:59N 49°11' W 122°55'0 0.0
2018-Jan-23 01:29N 49°11' W 122°55'0 0.0
2018-Jan-23 00:59N 49°11' W 122°55'0 0.0
2018-Jan-23 00:29N 49°11' W 122°55'0 0.0
2018-Jan-22 23:59N 49°11' W 122°55'0 0.0
2018-Jan-22 23:29N 49°11' W 122°55'0 0.0
2018-Jan-22 22:59N 49°11' W 122°55'0 0.0
2018-Jan-22 22:29N 49°11' W 122°55'0 0.0
2018-Jan-22 21:59N 49°11' W 122°55'0 0.0
2018-Jan-22 21:29N 49°11' W 122°55'0 0.0
2018-Jan-22 20:59N 49°11' W 122°55'1 3.0
2018-Jan-22 20:30N 49°10' W 122°57'4 8.3
2018-Jan-22 20:00N 49°09' W 123°03'4 8.5
2018-Jan-22 19:30N 49°06' W 123°08'510.1
2018-Jan-22 19:00N 49°07' W 123°16'4 8.1
2018-Jan-22 18:30N 49°05' W 123°21'3 6.6
2018-Jan-22 18:00N 49°03' W 123°17'4 8.8
2018-Jan-22 17:30N 48°60' W 123°12'713.4
2018-Jan-22 17:00N 48°55' W 123°05'713.9
2018-Jan-22 16:30N 48°49' W 122°59'714.2
2018-Jan-22 16:00N 48°44' W 123°07'612.8
2018-Jan-22 15:31N 48°40' W 123°15'815.7
2018-Jan-22 15:00N 48°32' W 123°12'815.1
2018-Jan-22 14:31N 48°25' W 123°11'714.1
2018-Jan-22 14:00N 48°22' W 123°20'3 7.0
2018-Jan-22 13:30N 48°20' W 123°24'2 4.3
2018-Jan-22 13:00N 48°18' W 123°25'3 5.8
2018-Jan-22 12:30N 48°15' W 123°27'4 7.0
2018-Jan-22 12:00N 48°13' W 123°32'4 7.5
2018-Jan-22 11:30N 48°13' W 123°37'4 7.9
2018-Jan-22 11:00N 48°13' W 123°43'4 7.5
2018-Jan-22 10:30N 48°14' W 123°49'4 7.4
2018-Jan-22 10:00N 48°14' W 123°54'4 7.7
2018-Jan-22 09:26N 48°15' W 124°00'4 8.4
2018-Jan-22 09:00N 48°17' W 124°05'510.4
2018-Jan-22 08:30N 48°19' W 124°13'612.0
2018-Jan-22 08:00N 48°21' W 124°21'5 9.4
2018-Jan-22 07:30N 48°23' W 124°27'3 6.7
2018-Jan-22 07:00N 48°25' W 124°31'3 6.6
2018-Jan-22 06:30N 48°26' W 124°36'3 6.0
2018-Jan-22 06:00N 48°27' W 124°40'3 6.8
2018-Jan-22 05:30N 48°29' W 124°45'3 6.6
2018-Jan-22 05:00N 48°29' W 124°50'3 5.9
2018-Jan-22 04:30N 48°29' W 124°54'3 5.7
2018-Jan-22 04:00N 48°29' W 124°59'3 6.0
2018-Jan-22 03:30N 48°29' W 125°03'3 5.8
2018-Jan-22 03:00N 48°29' W 125°08'3 5.7
2018-Jan-22 02:30N 48°29' W 125°12'3 5.9
2018-Jan-22 02:00N 48°29' W 125°16'3 5.9
2018-Jan-22 01:30N 48°29' W 125°21'3 6.8
2018-Jan-22 01:00N 48°28' W 125°26'4 7.6
2018-Jan-22 00:30N 48°28' W 125°31'510.2
2018-Jan-22 00:00N 48°27' W 125°39'510.2
2018-Jan-21 23:30N 48°26' W 125°47'510.2
2018-Jan-21 23:00N 48°25' W 125°54'5 9.9
2018-Jan-21 22:30N 48°24' W 126°01'5 9.3
2018-Jan-21 22:00N 48°23' W 126°08'5 8.8
2018-Jan-21 21:29N 48°24' W 126°15'5 9.3
2018-Jan-21 20:57N 48°24' W 126°23'  

Dump ship's entire track history